Time;durP1;ratioP1;P1;durP2;ratioP2;P2;SDS_P1;SDS_P2;PMS_P1;PMS_P2;Temp;Humidity;BMP_temperature;BMP_pressure;BME280_temperature;BME280_humidity;BME280_pressure;Samples;Min_cycle;Max_cycle;Signal;HPM_P1;HPM_P2
2021/01/30 00:00:27;;;;;;;0.77;0.27;;;3.20;96.80;;;;;;5097192;28;20403;-73
2021/01/30 00:02:52;;;;;;;0.40;0.20;;;3.30;96.80;;;;;;5096134;28;20027;-73
2021/01/30 00:05:18;;;;;;;0.20;0.10;;;3.30;96.90;;;;;;5095913;28;20066;-73
2021/01/30 00:07:43;;;;;;;0.60;0.30;;;3.30;96.90;;;;;;5078934;28;20059;-73
2021/01/30 00:10:10;;;;;;;0.70;0.30;;;3.30;96.80;;;;;;5097081;28;20042;-74
2021/01/30 00:12:35;;;;;;;0.70;0.20;;;3.30;96.80;;;;;;5095838;28;20025;-73
2021/01/30 00:15:01;;;;;;;0.57;0.30;;;3.30;96.80;;;;;;5078731;28;20408;-73
2021/01/30 00:17:27;;;;;;;0.40;0.20;;;3.30;96.80;;;;;;5095741;28;20035;-74
2021/01/30 00:19:52;;;;;;;0.70;0.30;;;3.30;96.80;;;;;;5095820;28;20532;-73
2021/01/30 00:22:19;;;;;;;1.27;0.37;;;3.20;96.70;;;;;;5062194;28;20032;-75
2021/01/30 00:24:48;;;;;;;1.00;0.40;;;3.20;96.70;;;;;;5075996;28;20028;-75
2021/01/30 00:27:21;;;;;;;0.70;0.30;;;3.20;96.80;;;;;;5087601;28;20047;-75
2021/01/30 00:29:48;;;;;;;0.80;0.30;;;3.20;96.80;;;;;;5094938;28;20123;-75
2021/01/30 00:32:15;;;;;;;1.23;0.40;;;3.20;96.90;;;;;;5078536;28;20432;-75
2021/01/30 00:34:41;;;;;;;0.97;0.33;;;3.20;96.80;;;;;;5078347;28;20032;-75
2021/01/30 00:37:19;;;;;;;1.10;0.40;;;3.20;96.80;;;;;;5078514;28;20452;-75
2021/01/30 00:39:45;;;;;;;0.90;0.30;;;3.20;96.90;;;;;;5096340;28;20169;-75
2021/01/30 00:42:12;;;;;;;1.10;0.30;;;3.30;97.00;;;;;;5095222;28;20103;-75
2021/01/30 00:44:38;;;;;;;0.97;0.30;;;3.30;96.90;;;;;;5095173;28;20480;-75
2021/01/30 00:47:05;;;;;;;1.27;0.40;;;3.30;96.80;;;;;;5078167;28;20032;-82
2021/01/30 00:49:31;;;;;;;1.40;0.30;;;3.30;96.80;;;;;;5096276;28;20109;-84
2021/01/30 00:51:57;;;;;;;1.33;0.40;;;3.20;96.70;;;;;;5077594;28;20071;-83
2021/01/30 00:54:23;;;;;;;1.33;0.43;;;3.20;96.60;;;;;;5096134;28;20028;-80
2021/01/30 00:56:53;;;;;;;0.80;0.30;;;3.20;96.60;;;;;;5077955;28;20024;-80
2021/01/30 00:59:19;;;;;;;1.50;0.50;;;3.20;96.60;;;;;;5096090;28;20024;-80
2021/01/30 01:01:45;;;;;;;1.83;0.50;;;3.10;96.60;;;;;;5096049;28;20032;-83
2021/01/30 01:04:11;;;;;;;1.37;0.40;;;3.20;96.60;;;;;;5094866;28;20036;-83
2021/01/30 01:06:37;;;;;;;1.20;0.40;;;3.10;96.60;;;;;;5095905;28;20107;-81
2021/01/30 01:09:07;;;;;;;1.33;0.50;;;3.10;96.60;;;;;;5095762;28;20434;-83
2021/01/30 01:11:35;;;;;;;1.40;0.50;;;3.10;96.60;;;;;;5094656;28;20054;-83
2021/01/30 01:14:02;;;;;;;1.83;0.60;;;3.10;96.60;;;;;;5095732;28;20055;-83
2021/01/30 01:16:27;;;;;;;1.23;0.40;;;3.10;96.60;;;;;;5095563;28;20061;-81
2021/01/30 01:18:53;;;;;;;1.90;0.50;;;3.00;96.60;;;;;;5094458;28;20028;-84
2021/01/30 01:21:18;;;;;;;2.83;0.70;;;3.00;96.60;;;;;;5094443;28;20043;-80
2021/01/30 01:23:45;;;;;;;2.17;0.70;;;3.00;96.60;;;;;;5094196;28;20476;-81
2021/01/30 01:26:13;;;;;;;2.47;0.60;;;3.00;96.50;;;;;;5094251;28;20036;-82
2021/01/30 01:28:39;;;;;;;2.20;0.73;;;3.00;96.50;;;;;;5095715;28;20456;-81
2021/01/30 01:31:05;;;;;;;3.43;0.90;;;3.00;96.40;;;;;;5095652;28;20036;-81
2021/01/30 01:33:31;;;;;;;1.33;0.50;;;3.00;96.50;;;;;;5094545;28;20115;-83
2021/01/30 01:35:57;;;;;;;1.60;0.57;;;3.00;96.50;;;;;;5093933;28;20067;-73
2021/01/30 01:38:23;;;;;;;1.37;0.50;;;2.90;96.40;;;;;;5094027;28;20467;-73
2021/01/30 01:40:49;;;;;;;1.60;0.50;;;2.90;96.40;;;;;;5093826;28;20024;-73
2021/01/30 01:43:25;;;;;;;2.23;0.53;;;2.90;96.40;;;;;;5076970;28;20051;-73
2021/01/30 01:46:11;;;;;;;1.70;0.60;;;2.90;96.40;;;;;;5093767;28;20032;-73
2021/01/30 01:49:15;;;;;;;2.10;0.70;;;2.90;96.40;;;;;;5090830;28;20044;-73
2021/01/30 01:51:45;;;;;;;2.37;0.60;;;2.90;96.30;;;;;;5092973;28;20036;-73
2021/01/30 01:54:31;;;;;;;2.00;0.50;;;2.80;96.30;;;;;;5093589;28;20028;-73
2021/01/30 01:57:05;;;;;;;2.43;0.70;;;2.80;96.30;;;;;;5093546;28;20406;-73
2021/01/30 01:59:31;;;;;;;2.65;0.70;;;2.80;96.30;;;;;;5093589;28;20035;-73
2021/01/30 02:01:57;;;;;;;2.50;0.70;;;2.80;96.30;;;;;;5093440;28;20414;-73
2021/01/30 02:04:23;;;;;;;2.03;0.70;;;2.80;96.30;;;;;;5075891;28;20021;-73
2021/01/30 02:06:50;;;;;;;1.40;0.50;;;2.80;96.30;;;;;;5076765;28;20043;-73
2021/01/30 02:09:22;;;;;;;0.90;0.40;;;2.70;96.20;;;;;;5076413;28;20016;-82
2021/01/30 02:12:07;;;;;;;1.60;0.50;;;2.70;96.30;;;;;;5093274;28;20475;-81
2021/01/30 02:14:41;;;;;;;1.30;0.40;;;2.70;96.20;;;;;;5093413;28;20047;-82
2021/01/30 02:17:12;;;;;;;2.07;0.53;;;2.70;96.20;;;;;;5094614;28;20055;-81
2021/01/30 02:20:17;;;;;;;1.90;0.50;;;2.70;96.30;;;;;;5093274;28;20031;-82
2021/01/30 02:22:58;;;;;;;;;;;2.70;96.20;;;;;;5093644;28;20024;-83
2021/01/30 02:25:45;;;;;;;1.70;0.50;;;2.70;96.20;;;;;;5093035;28;19904;-82
2021/01/30 02:28:26;;;;;;;2.73;0.60;;;2.70;96.10;;;;;;5093090;28;20130;-82
2021/01/30 02:31:21;;;;;;;1.70;0.50;;;2.60;96.10;;;;;;5092975;28;20042;-82
2021/01/30 02:34:24;;;;;;;1.40;0.45;;;2.60;96.10;;;;;;5094161;28;20464;-73
2021/01/30 02:36:49;;;;;;;1.80;0.60;;;2.60;96.10;;;;;;5092827;28;20020;-74
2021/01/30 02:39:21;;;;;;;1.30;0.40;;;2.60;96.10;;;;;;5092924;28;20429;-73
2021/01/30 02:42:02;;;;;;;1.20;0.43;;;2.50;96.10;;;;;;5092669;28;20020;-73
2021/01/30 02:44:32;;;;;;;1.27;0.43;;;2.60;96.20;;;;;;5092755;28;20016;-81
2021/01/30 02:46:58;;;;;;;1.10;0.30;;;2.50;96.10;;;;;;5094386;28;20119;-83
2021/01/30 02:49:33;;;;;;;1.10;0.40;;;2.60;96.20;;;;;;5092734;28;20059;-82
2021/01/30 02:52:06;;;;;;;1.30;0.40;;;2.60;96.20;;;;;;5092555;28;20079;-83
2021/01/30 02:54:34;;;;;;;1.37;0.37;;;2.60;96.20;;;;;;5092569;28;20085;-82
2021/01/30 02:57:00;;;;;;;1.23;0.47;;;2.60;96.20;;;;;;5093872;28;20436;-81
2021/01/30 02:59:29;;;;;;;1.03;0.40;;;2.60;96.20;;;;;;5092645;28;20048;-81
2021/01/30 03:01:55;;;;;;;1.27;0.40;;;2.60;96.20;;;;;;5093876;28;20028;-73
2021/01/30 03:04:25;;;;;;;1.87;0.60;;;2.60;96.20;;;;;;5075381;28;20498;-73
2021/01/30 03:07:00;;;;;;;1.07;0.40;;;2.60;96.20;;;;;;5092371;28;20111;-73
2021/01/30 03:09:36;;;;;;;1.53;0.50;;;2.60;96.20;;;;;;5093488;28;20070;-73
2021/01/30 03:12:20;;;;;;;1.40;0.40;;;2.60;96.20;;;;;;5092167;28;20028;-73
2021/01/30 03:14:52;;;;;;;;;;;2.60;96.20;;;;;;5092502;28;20032;-73
2021/01/30 03:17:19;;;;;;;1.53;0.50;;;2.60;96.20;;;;;;5092427;28;19911;-82
2021/01/30 03:19:45;;;;;;;0.93;0.40;;;2.60;96.10;;;;;;5092306;28;20055;-82
2021/01/30 03:22:13;;;;;;;1.70;0.50;;;2.60;96.20;;;;;;5092053;28;20069;-82
2021/01/30 03:24:46;;;;;;;1.90;0.50;;;2.60;96.10;;;;;;5093391;28;20090;-82
2021/01/30 03:27:21;;;;;;;1.73;0.50;;;2.60;96.10;;;;;;5093418;28;20103;-83
2021/01/30 03:29:50;;;;;;;1.40;0.40;;;2.50;96.10;;;;;;5091967;28;20365;-82
2021/01/30 03:32:18;;;;;;;1.73;0.40;;;2.60;96.10;;;;;;5093357;28;20360;-83
2021/01/30 03:34:47;;;;;;;1.30;0.50;;;2.60;96.10;;;;;;5093184;28;20016;-81
2021/01/30 03:37:13;;;;;;;1.63;0.60;;;2.60;96.10;;;;;;5093341;28;20111;-82
2021/01/30 03:39:38;;;;;;;1.13;0.43;;;2.60;96.10;;;;;;5093501;28;20055;-83
2021/01/30 03:42:04;;;;;;;1.33;0.47;;;2.60;96.10;;;;;;5091935;28;20484;-81
2021/01/30 03:44:30;;;;;;;1.73;0.50;;;2.50;96.10;;;;;;5091963;28;20476;-82
2021/01/30 03:46:55;;;;;;;0.80;0.40;;;2.50;96.00;;;;;;5091921;28;20032;-82
2021/01/30 03:49:21;;;;;;;1.03;0.40;;;2.60;96.10;;;;;;5091989;28;20552;-82
2021/01/30 03:51:47;;;;;;;0.73;0.30;;;2.50;96.00;;;;;;5074865;28;20492;-82
2021/01/30 03:54:14;;;;;;;1.10;0.40;;;2.60;96.10;;;;;;5093211;28;20036;-82
2021/01/30 03:56:42;;;;;;;1.27;0.40;;;2.50;96.10;;;;;;5093238;28;20074;-84
2021/01/30 03:59:08;;;;;;;1.27;0.40;;;2.60;96.20;;;;;;5093156;28;20024;-83
2021/01/30 04:01:34;;;;;;;1.00;0.40;;;2.60;96.20;;;;;;5092991;28;20529;-83
2021/01/30 04:04:00;;;;;;;1.10;0.40;;;2.60;96.20;;;;;;5093123;28;20031;-82
2021/01/30 04:06:25;;;;;;;0.73;0.33;;;2.60;96.40;;;;;;5093070;28;20028;-83
2021/01/30 04:08:51;;;;;;;1.00;0.40;;;2.60;96.00;;;;;;5093231;28;20113;-82
2021/01/30 04:11:23;;;;;;;1.50;0.40;;;2.60;96.00;;;;;;5092916;28;20127;-82
2021/01/30 04:13:49;;;;;;;0.97;0.30;;;2.60;96.10;;;;;;5093030;28;20016;-82
2021/01/30 04:16:14;;;;;;;1.20;0.40;;;2.60;96.10;;;;;;5091856;28;20360;-83
2021/01/30 04:18:40;;;;;;;1.07;0.40;;;2.60;96.10;;;;;;5074734;28;20028;-82
2021/01/30 04:21:05;;;;;;;1.27;0.40;;;2.60;96.00;;;;;;5074924;28;20035;-83
2021/01/30 04:23:31;;;;;;;1.33;0.40;;;2.60;96.00;;;;;;5091740;28;20086;-83
2021/01/30 04:25:56;;;;;;;1.03;0.33;;;2.60;95.90;;;;;;5091754;28;20036;-83
2021/01/30 04:28:22;;;;;;;0.83;0.30;;;2.60;96.00;;;;;;5077418;28;20030;-83
2021/01/30 04:30:47;;;;;;;0.80;0.30;;;2.50;96.00;;;;;;5061710;28;20471;-84
2021/01/30 04:33:13;;;;;;;0.80;0.30;;;2.50;96.00;;;;;;5095357;28;20178;-83
2021/01/30 04:35:39;;;;;;;0.67;0.30;;;2.50;96.00;;;;;;5095380;28;20055;-83
2021/01/30 04:38:05;;;;;;;0.73;0.40;;;2.50;96.00;;;;;;5095297;28;20024;-82
2021/01/30 04:40:43;;;;;;;1.07;0.30;;;2.50;95.90;;;;;;5095422;28;20376;-82
2021/01/30 04:43:13;;;;;;;1.60;0.40;;;2.50;95.90;;;;;;5095035;28;20110;-83
2021/01/30 04:45:44;;;;;;;1.07;0.37;;;2.40;95.70;;;;;;5096359;28;20036;-82
2021/01/30 04:48:47;;;;;;;1.40;0.47;;;2.40;95.70;;;;;;5096499;28;20028;-84
2021/01/30 04:51:22;;;;;;;1.90;0.90;;;2.30;95.60;;;;;;5096198;28;20107;-82
2021/01/30 04:54:08;;;;;;;0.87;0.30;;;2.30;95.50;;;;;;5094774;28;20101;-82
2021/01/30 04:57:01;;;;;;;1.30;0.33;;;2.20;95.40;;;;;;5095731;28;20032;-83
2021/01/30 05:00:00;;;;;;;1.30;0.40;;;2.10;95.40;;;;;;5094952;28;20016;-83
2021/01/30 05:02:38;;;;;;;0.73;0.30;;;2.10;95.40;;;;;;5093591;28;20028;-82
2021/01/30 05:05:08;;;;;;;1.03;0.40;;;2.10;95.40;;;;;;5095256;28;20050;-82
2021/01/30 05:07:45;;;;;;;0.80;0.30;;;2.10;95.40;;;;;;5095371;28;20059;-82
2021/01/30 05:10:20;;;;;;;0.50;0.30;;;2.00;95.30;;;;;;5094345;28;20513;-82
2021/01/30 05:12:55;;;;;;;0.90;0.30;;;2.00;95.30;;;;;;5096251;28;20028;-82
2021/01/30 05:15:45;;;;;;;0.60;0.30;;;2.00;95.30;;;;;;5094506;28;20047;-83
2021/01/30 05:18:18;;;;;;;0.83;0.30;;;1.90;95.30;;;;;;5095727;28;20047;-82
2021/01/30 05:21:12;;;;;;;1.23;0.40;;;1.90;95.30;;;;;;5095742;28;20085;-83
2021/01/30 05:23:41;;;;;;;1.20;0.40;;;1.80;95.20;;;;;;5095783;28;20024;-82
2021/01/30 05:26:20;;;;;;;0.77;0.40;;;1.80;95.30;;;;;;5095628;28;20020;-83
2021/01/30 05:29:02;;;;;;;1.23;0.40;;;1.80;95.40;;;;;;5095562;28;20024;-74
2021/01/30 05:31:45;;;;;;;0.67;0.30;;;1.80;95.40;;;;;;5093929;28;20114;-74
2021/01/30 05:34:29;;;;;;;0.63;0.30;;;1.80;95.40;;;;;;5094160;28;20072;-74
2021/01/30 05:37:05;;;;;;;1.10;0.30;;;1.80;95.40;;;;;;5095270;28;20016;-74
2021/01/30 05:39:31;;;;;;;0.70;0.30;;;1.80;95.30;;;;;;5093072;28;20024;-74
2021/01/30 05:42:15;;;;;;;0.90;0.30;;;1.80;95.30;;;;;;5095043;28;20032;-74
2021/01/30 05:44:50;;;;;;;0.77;0.30;;;1.80;95.40;;;;;;5095284;28;20039;-74
2021/01/30 05:47:23;;;;;;;0.93;0.40;;;1.80;95.40;;;;;;5091041;28;20032;-74
2021/01/30 05:50:04;;;;;;;0.50;0.30;;;1.90;95.50;;;;;;5081735;28;20484;-74
2021/01/30 05:52:33;;;;;;;1.13;0.50;;;1.90;95.70;;;;;;5081523;28;20047;-74
2021/01/30 05:54:59;;;;;;;0.70;0.30;;;1.90;95.70;;;;;;5094681;28;20051;-74
2021/01/30 05:57:25;;;;;;;1.20;0.30;;;1.90;95.80;;;;;;5085321;28;20020;-74
2021/01/30 05:59:57;;;;;;;1.63;0.40;;;1.90;95.80;;;;;;5091619;28;20018;-74
2021/01/30 06:02:30;;;;;;;1.00;0.40;;;2.00;95.90;;;;;;5094658;28;20020;-74
2021/01/30 06:04:57;;;;;;;1.03;0.40;;;2.00;96.00;;;;;;5093799;28;20013;-74
2021/01/30 06:07:31;;;;;;;1.03;0.50;;;2.00;96.00;;;;;;5091838;28;20319;-74
2021/01/30 06:09:57;;;;;;;1.30;0.40;;;2.00;96.10;;;;;;5093000;28;20387;-74
2021/01/30 06:12:36;;;;;;;1.00;0.40;;;2.10;96.10;;;;;;5094850;28;20380;-75
2021/01/30 06:15:08;;;;;;;1.00;0.40;;;2.10;96.10;;;;;;5094616;28;20058;-74
2021/01/30 06:17:34;;;;;;;1.03;0.30;;;2.10;96.10;;;;;;5091637;28;20095;-75
2021/01/30 06:20:12;;;;;;;1.30;0.40;;;2.10;96.00;;;;;;5093354;28;20074;-74
2021/01/30 06:22:40;;;;;;;0.80;0.40;;;2.10;96.00;;;;;;5092588;28;20031;-74
2021/01/30 06:25:25;;;;;;;1.00;0.30;;;2.10;96.00;;;;;;5075926;28;20031;-74
2021/01/30 06:27:54;;;;;;;0.90;0.40;;;2.00;96.00;;;;;;5094279;28;20024;-74
2021/01/30 06:30:36;;;;;;;0.97;0.40;;;2.10;96.10;;;;;;5092953;28;20016;-75
2021/01/30 06:33:18;;;;;;;0.93;0.33;;;2.10;96.10;;;;;;5093554;28;20020;-74
2021/01/30 06:35:44;;;;;;;1.13;0.40;;;2.20;96.10;;;;;;5092998;28;20027;-74
2021/01/30 06:38:17;;;;;;;1.27;0.40;;;2.20;96.00;;;;;;5094196;28;20074;-74
2021/01/30 06:40:59;;;;;;;0.82;0.38;;;2.10;96.00;;;;;;5094131;28;20544;-74
2021/01/30 06:43:43;;;;;;;1.20;0.40;;;2.20;96.00;;;;;;5093997;28;20035;-74
2021/01/30 06:46:13;;;;;;;0.77;0.40;;;2.20;96.00;;;;;;5094167;28;20055;-74
2021/01/30 06:48:54;;;;;;;0.70;0.30;;;2.20;96.00;;;;;;5093965;28;20106;-74
2021/01/30 06:51:25;;;;;;;0.87;0.37;;;2.20;96.00;;;;;;5092325;28;20046;-74
2021/01/30 06:53:51;;;;;;;0.67;0.30;;;2.20;96.00;;;;;;5094004;28;20040;-74
2021/01/30 06:56:27;;;;;;;0.87;0.40;;;2.20;96.00;;;;;;5093796;28;20081;-74
2021/01/30 06:59:03;;;;;;;1.10;0.30;;;2.20;96.00;;;;;;5092792;28;20035;-84
2021/01/30 07:01:42;;;;;;;1.40;0.40;;;2.20;96.00;;;;;;5092666;28;20024;-82
2021/01/30 07:04:27;;;;;;;0.83;0.30;;;2.20;96.00;;;;;;5092604;28;20024;-74
2021/01/30 07:07:22;;;;;;;0.77;0.30;;;2.20;96.00;;;;;;5093881;28;20024;-74
2021/01/30 07:10:06;;;;;;;;;;;2.20;95.90;;;;;;5094047;28;20020;-74
2021/01/30 07:12:54;;;;;;;0.87;0.30;;;2.20;95.90;;;;;;5093591;28;19935;-74
2021/01/30 07:15:29;;;;;;;1.20;0.30;;;2.20;95.80;;;;;;5093442;28;20433;-74
2021/01/30 07:17:58;;;;;;;0.73;0.27;;;2.20;95.90;;;;;;5093466;28;20028;-75
2021/01/30 07:20:47;;;;;;;1.13;0.40;;;2.20;95.80;;;;;;5093411;28;20050;-74
2021/01/30 07:23:41;;;;;;;0.80;0.30;;;2.20;95.80;;;;;;5092382;28;20434;-82
2021/01/30 07:26:39;;;;;;;1.20;0.40;;;2.20;95.80;;;;;;5093631;28;20498;-84
2021/01/30 07:29:22;;;;;;;0.80;0.30;;;2.20;95.80;;;;;;5093640;28;20065;-82
2021/01/30 07:32:09;;;;;;;1.23;0.40;;;2.30;95.80;;;;;;5093453;28;20432;-83
2021/01/30 07:35:07;;;;;;;1.27;0.40;;;2.30;95.80;;;;;;5092176;28;20388;-84
2021/01/30 07:38:00;;;;;;;0.60;0.30;;;2.30;95.70;;;;;;5091245;28;20122;-82
2021/01/30 07:40:44;;;;;;;1.17;0.30;;;2.30;95.70;;;;;;5092187;28;20020;-84
2021/01/30 07:43:18;;;;;;;0.68;0.22;;;2.30;95.70;;;;;;5092035;28;20114;-83
2021/01/30 07:46:05;;;;;;;;;;;2.30;95.70;;;;;;5093798;28;20487;-83
2021/01/30 07:48:36;;;;;;;0.70;0.20;;;2.30;95.70;;;;;;5092021;28;19904;-82
2021/01/30 07:51:10;;;;;;;0.57;0.23;;;2.30;95.80;;;;;;5091797;28;20016;-82
2021/01/30 07:53:36;;;;;;;;;;;2.30;95.80;;;;;;5092182;28;20036;-82
2021/01/30 07:56:16;;;;;;;0.50;0.20;;;2.30;95.80;;;;;;5093356;28;20306;-83
2021/01/30 07:59:04;;;;;;;0.80;0.30;;;2.30;95.80;;;;;;5091915;28;20033;-83
2021/01/30 08:01:41;;;;;;;0.50;0.20;;;2.30;95.80;;;;;;5091891;28;20384;-83
2021/01/30 08:04:30;;;;;;;0.50;0.27;;;2.30;95.80;;;;;;5097346;28;20020;-84
2021/01/30 08:07:08;;;;;;;0.40;0.20;;;2.30;95.80;;;;;;5075921;28;20032;-82
2021/01/30 08:09:47;;;;;;;0.93;0.30;;;2.40;95.90;;;;;;5095814;28;20024;-83
2021/01/30 08:12:34;;;;;;;1.20;0.30;;;2.40;95.90;;;;;;5096906;28;20050;-83
2021/01/30 08:15:10;;;;;;;0.80;0.20;;;2.40;95.90;;;;;;5096933;28;20028;-83
2021/01/30 08:17:53;;;;;;;0.90;0.40;;;2.40;95.90;;;;;;5096991;28;20510;-83
2021/01/30 08:20:42;;;;;;;0.97;0.30;;;2.50;95.90;;;;;;5095677;28;20031;-84
2021/01/30 08:23:35;;;;;;;0.80;0.20;;;2.50;95.90;;;;;;5095849;28;20024;-83
2021/01/30 08:26:05;;;;;;;0.73;0.30;;;2.50;95.80;;;;;;5090472;28;20033;-83
2021/01/30 08:28:45;;;;;;;0.90;0.40;;;2.50;95.70;;;;;;5085729;28;20107;-83
2021/01/30 08:31:31;;;;;;;0.83;0.33;;;2.50;95.70;;;;;;5102025;28;20021;-84
2021/01/30 08:34:01;;;;;;;0.40;0.20;;;2.50;95.80;;;;;;5085927;28;20028;-83
2021/01/30 08:36:47;;;;;;;0.93;0.40;;;2.50;95.80;;;;;;5096708;28;20028;-83
2021/01/30 08:39:27;;;;;;;0.60;0.20;;;2.50;95.80;;;;;;5095308;28;20085;-83
2021/01/30 08:42:07;;;;;;;0.60;0.30;;;2.50;95.80;;;;;;5095257;28;20035;-83
2021/01/30 08:44:50;;;;;;;0.87;0.20;;;2.60;95.80;;;;;;5096730;28;20437;-85
2021/01/30 08:47:34;;;;;;;0.77;0.27;;;2.60;95.80;;;;;;5085725;28;20024;-85
2021/01/30 08:50:09;;;;;;;0.52;0.20;;;2.60;95.80;;;;;;5088321;28;20066;-84
2021/01/30 08:52:44;;;;;;;0.73;0.20;;;2.60;96.20;;;;;;5087050;28;20047;-84
2021/01/30 08:55:31;;;;;;;0.67;0.20;;;2.70;95.90;;;;;;5094978;28;20126;-82
2021/01/30 08:57:57;;;;;;;0.87;0.33;;;2.80;96.00;;;;;;5096200;28;20028;-85
2021/01/30 09:00:26;;;;;;;0.60;0.23;;;2.80;96.10;;;;;;5094785;28;20036;-84
2021/01/30 09:02:58;;;;;;;0.30;0.20;;;2.90;96.00;;;;;;5090969;28;20032;-75
2021/01/30 09:05:24;;;;;;;0.30;0.20;;;2.90;96.00;;;;;;5096041;28;20028;-76
2021/01/30 09:07:51;;;;;;;0.60;0.20;;;2.90;96.00;;;;;;5095896;28;20388;-76
2021/01/30 09:10:22;;;;;;;0.30;0.13;;;3.00;96.00;;;;;;5094524;28;20088;-75
2021/01/30 09:12:55;;;;;;;0.20;0.10;;;3.10;96.10;;;;;;5094000;28;20116;-75
2021/01/30 09:15:41;;;;;;;0.57;0.20;;;3.10;96.10;;;;;;5095930;28;20031;-75
2021/01/30 09:18:27;;;;;;;0.43;0.20;;;3.20;96.10;;;;;;5095754;28;20020;-74
2021/01/30 09:20:58;;;;;;;0.57;0.20;;;3.30;96.20;;;;;;5094182;28;20028;-76
2021/01/30 09:23:43;;;;;;;0.60;0.20;;;3.30;96.10;;;;;;5094091;28;20039;-74
2021/01/30 09:26:18;;;;;;;0.57;0.30;;;3.30;96.10;;;;;;5094231;28;20031;-75
2021/01/30 09:28:44;;;;;;;0.50;0.20;;;3.30;96.20;;;;;;5095638;28;20368;-78
2021/01/30 09:31:16;;;;;;;0.20;0.20;;;3.40;96.20;;;;;;5094222;28;20039;-75
2021/01/30 09:34:05;;;;;;;0.30;0.20;;;3.40;96.10;;;;;;5094178;28;20024;-75
2021/01/30 09:36:34;;;;;;;0.87;0.20;;;3.40;96.20;;;;;;5095665;28;20028;-75
2021/01/30 09:39:01;;;;;;;0.67;0.20;;;3.50;96.20;;;;;;5095631;28;20095;-75
2021/01/30 09:41:33;;;;;;;0.60;0.20;;;3.50;96.20;;;;;;5094030;28;20039;-75
2021/01/30 09:44:08;;;;;;;0.33;0.20;;;3.60;96.20;;;;;;5094040;28;20425;-75
2021/01/30 09:46:37;;;;;;;0.47;0.20;;;3.60;96.10;;;;;;5094048;28;20028;-75
2021/01/30 09:49:08;;;;;;;0.80;0.30;;;3.60;96.10;;;;;;5095297;28;20051;-76
2021/01/30 09:51:39;;;;;;;0.37;0.20;;;3.70;96.10;;;;;;5093723;28;20059;-74
2021/01/30 09:54:05;;;;;;;0.60;0.30;;;3.70;96.10;;;;;;5093739;28;20035;-75
2021/01/30 09:56:36;;;;;;;0.37;0.20;;;3.70;96.20;;;;;;5093829;28;20378;-76
2021/01/30 09:59:03;;;;;;;0.37;0.20;;;3.80;96.30;;;;;;5093787;28;20031;-75
2021/01/30 10:01:33;;;;;;;0.40;0.20;;;3.90;96.30;;;;;;5093698;28;20035;-75
2021/01/30 10:04:00;;;;;;;0.50;0.20;;;4.00;96.40;;;;;;5093758;28;20110;-74
2021/01/30 10:06:32;;;;;;;0.40;0.20;;;4.00;96.30;;;;;;5076750;28;20032;-75
2021/01/30 10:09:15;;;;;;;0.40;0.17;;;4.10;96.30;;;;;;5094839;28;20103;-75
2021/01/30 10:11:43;;;;;;;0.60;0.20;;;4.20;96.70;;;;;;5093248;28;20051;-75
2021/01/30 10:14:09;;;;;;;0.53;0.20;;;4.40;97.00;;;;;;5093439;28;20016;-75
2021/01/30 10:16:36;;;;;;;0.50;0.20;;;4.70;97.20;;;;;;5093721;28;20081;-75
2021/01/30 10:19:23;;;;;;;0.30;0.20;;;4.80;97.40;;;;;;5089401;28;20108;-76
2021/01/30 10:21:49;;;;;;;0.23;0.20;;;4.90;97.30;;;;;;5077568;28;20036;-76
2021/01/30 10:24:26;;;;;;;0.80;0.23;;;4.90;97.20;;;;;;5080928;28;20031;-76
2021/01/30 10:26:54;;;;;;;0.30;0.20;;;5.10;97.60;;;;;;5084466;28;20066;-76
2021/01/30 10:29:23;;;;;;;0.20;0.20;;;5.50;98.40;;;;;;5089547;28;20055;-76
2021/01/30 10:32:01;;;;;;;0.60;0.30;;;5.80;98.70;;;;;;5094311;28;20028;-76
2021/01/30 10:34:33;;;;;;;0.43;0.20;;;6.00;98.70;;;;;;5094288;28;20383;-76
2021/01/30 10:37:18;;;;;;;0.83;0.20;;;6.10;98.50;;;;;;5092968;28;20024;-76
2021/01/30 10:39:59;;;;;;;0.40;0.20;;;6.10;98.10;;;;;;5093000;28;20020;-77
2021/01/30 10:42:28;;;;;;;0.57;0.20;;;6.10;97.70;;;;;;5094030;28;20024;-77
2021/01/30 10:45:02;;;;;;;0.53;0.23;;;5.90;97.20;;;;;;5092881;28;20043;-77
2021/01/30 10:47:28;;;;;;;0.70;0.30;;;5.90;97.00;;;;;;5092639;28;20392;-77
2021/01/30 10:50:07;;;;;;;0.70;0.20;;;5.90;96.90;;;;;;5075715;28;20032;-76
2021/01/30 10:52:33;;;;;;;0.50;0.20;;;5.80;96.70;;;;;;5093764;28;20048;-78
2021/01/30 10:55:24;;;;;;;0.57;0.20;;;5.70;96.60;;;;;;5059083;28;20051;-78
2021/01/30 10:57:51;;;;;;;0.60;0.30;;;5.70;96.60;;;;;;5092752;28;20024;-76
2021/01/30 11:00:26;;;;;;;0.50;0.30;;;5.70;96.70;;;;;;5059216;28;20055;-76
2021/01/30 11:02:52;;;;;;;0.60;0.30;;;5.70;96.70;;;;;;5092728;28;20211;-76
2021/01/30 11:05:20;;;;;;;0.60;0.30;;;5.70;96.60;;;;;;5075695;28;20131;-76
2021/01/30 11:07:49;;;;;;;0.40;0.20;;;5.80;96.50;;;;;;5091646;28;20027;-76
2021/01/30 11:10:23;;;;;;;0.40;0.20;;;5.70;96.30;;;;;;5073457;28;20483;-76
2021/01/30 11:12:49;;;;;;;0.22;0.13;;;5.70;96.20;;;;;;5082645;28;20472;-77
2021/01/30 11:15:24;;;;;;;0.40;0.20;;;5.70;96.10;;;;;;5081108;28;20108;-76
2021/01/30 11:18:09;;;;;;;0.50;0.20;;;5.60;96.00;;;;;;5058171;28;20373;-75
2021/01/30 11:20:41;;;;;;;0.30;0.20;;;5.70;96.00;;;;;;5071988;28;20384;-75
2021/01/30 11:23:07;;;;;;;0.43;0.20;;;5.60;95.90;;;;;;5072242;28;20158;-76
2021/01/30 11:25:40;;;;;;;0.27;0.20;;;5.60;95.90;;;;;;5073247;28;20058;-76
2021/01/30 11:28:07;;;;;;;0.37;0.20;;;5.60;95.80;;;;;;5072068;28;20024;-75
2021/01/30 11:30:33;;;;;;;0.43;0.40;;;5.60;95.70;;;;;;5055235;28;20055;-76
2021/01/30 11:33:17;;;;;;;0.10;0.10;;;5.60;95.80;;;;;;5072014;28;20028;-84
2021/01/30 11:35:45;;;;;;;0.20;0.20;;;5.60;95.90;;;;;;5073090;28;20050;-84
2021/01/30 11:38:18;;;;;;;0.30;0.20;;;5.60;95.70;;;;;;5071911;28;20019;-85
2021/01/30 11:40:44;;;;;;;0.33;0.20;;;5.70;95.70;;;;;;5071900;28;20048;-84
2021/01/30 11:43:11;;;;;;;0.17;0.17;;;5.60;95.60;;;;;;5055239;28;20025;-84
2021/01/30 11:45:37;;;;;;;0.50;0.30;;;5.50;95.50;;;;;;5071806;28;20037;-84
2021/01/30 11:48:03;;;;;;;0.27;0.10;;;5.50;95.50;;;;;;5055360;28;20040;-83
2021/01/30 11:50:29;;;;;;;0.40;0.20;;;5.50;95.50;;;;;;5055106;28;20037;-84
2021/01/30 11:53:11;;;;;;;0.50;0.30;;;5.50;95.40;;;;;;5071626;28;20036;-84
2021/01/30 11:55:38;;;;;;;0.40;0.20;;;5.50;95.40;;;;;;5088599;28;20108;-83
2021/01/30 11:58:04;;;;;;;0.80;0.27;;;5.50;95.50;;;;;;5071530;28;20025;-84
2021/01/30 12:00:30;;;;;;;0.43;0.10;;;5.50;95.50;;;;;;5071495;28;20427;-76
2021/01/30 12:02:56;;;;;;;0.43;0.20;;;5.60;95.50;;;;;;5088425;28;20021;-77
2021/01/30 12:05:21;;;;;;;0.30;0.13;;;5.60;95.40;;;;;;5071608;28;20094;-76
2021/01/30 12:07:47;;;;;;;0.10;0.10;;;5.60;95.40;;;;;;5072680;28;20028;-77
2021/01/30 12:10:13;;;;;;;0.30;0.10;;;5.60;95.20;;;;;;5054867;28;20029;-77
2021/01/30 12:12:39;;;;;;;0.60;0.20;;;5.50;95.10;;;;;;5055021;28;20024;-77
2021/01/30 12:15:06;;;;;;;0.60;0.20;;;5.50;95.10;;;;;;5054868;28;20369;-83
2021/01/30 12:17:38;;;;;;;1.00;0.30;;;5.40;95.00;;;;;;5071579;28;20031;-83
2021/01/30 12:20:06;;;;;;;0.50;0.20;;;5.40;95.10;;;;;;5071566;28;20116;-83
2021/01/30 12:22:31;;;;;;;0.40;0.20;;;5.40;95.20;;;;;;5088244;28;20388;-84
2021/01/30 12:24:58;;;;;;;0.33;0.20;;;5.40;95.20;;;;;;5071934;28;20070;-84
2021/01/30 12:27:25;;;;;;;0.40;0.20;;;5.40;95.20;;;;;;5072137;28;20527;-85
2021/01/30 12:29:50;;;;;;;0.40;0.20;;;5.50;95.50;;;;;;5072957;28;20017;-84
2021/01/30 12:32:18;;;;;;;0.40;0.20;;;5.50;95.30;;;;;;5071401;28;20544;-84
2021/01/30 12:34:43;;;;;;;0.33;0.20;;;5.60;95.40;;;;;;5070707;28;20028;-84
2021/01/30 12:37:09;;;;;;;0.50;0.30;;;5.70;95.40;;;;;;5071202;28;20468;-84
2021/01/30 12:39:34;;;;;;;0.43;0.20;;;5.70;95.30;;;;;;5072471;28;20024;-83
2021/01/30 12:42:00;;;;;;;0.60;0.30;;;5.70;95.20;;;;;;5070720;28;20024;-84
2021/01/30 12:44:26;;;;;;;0.63;0.20;;;5.70;95.20;;;;;;5069477;28;20468;-84
2021/01/30 12:46:52;;;;;;;0.57;0.30;;;5.70;95.20;;;;;;5087845;28;20561;-84
2021/01/30 12:49:19;;;;;;;1.23;0.43;;;5.70;95.30;;;;;;5089938;28;20093;-83
2021/01/30 12:51:45;;;;;;;4.27;1.17;;;5.70;95.20;;;;;;5091513;28;20146;-83
2021/01/30 12:54:11;;;;;;;3.07;1.10;;;5.70;94.90;;;;;;5091711;28;20028;-84
2021/01/30 12:56:36;;;;;;;5.40;2.37;;;5.80;94.90;;;;;;5076064;28;20024;-84
2021/01/30 12:59:03;;;;;;;7.60;3.43;;;5.70;94.60;;;;;;5075048;28;20078;-84
2021/01/30 13:01:30;;;;;;;10.23;4.90;;;5.70;94.40;;;;;;5074378;28;20119;-84
2021/01/30 13:03:56;;;;;;;12.10;5.47;;;5.70;94.30;;;;;;5091532;28;20028;-84
2021/01/30 13:06:22;;;;;;;11.00;5.67;;;5.60;94.20;;;;;;5091394;28;20055;-84
2021/01/30 13:08:49;;;;;;;12.83;7.20;;;5.60;94.20;;;;;;5091700;28;20032;-85
2021/01/30 13:11:15;;;;;;;17.20;8.57;;;5.60;93.50;;;;;;5074415;28;20035;-84
2021/01/30 13:13:42;;;;;;;16.43;9.03;;;5.50;93.70;;;;;;5074328;28;20020;-83
2021/01/30 13:16:09;;;;;;;17.53;10.60;;;5.40;92.00;;;;;;5074397;28;20024;-84
2021/01/30 13:18:34;;;;;;;19.03;11.43;;;5.40;91.60;;;;;;5075514;28;20017;-85
2021/01/30 13:21:03;;;;;;;18.27;10.87;;;5.30;91.20;;;;;;5074337;28;20048;-85
2021/01/30 13:23:29;;;;;;;17.10;9.70;;;5.30;91.00;;;;;;5090967;28;20040;-84
2021/01/30 13:25:55;;;;;;;16.13;9.23;;;5.30;90.60;;;;;;5091025;28;20039;-84